Orbital elements of FENGYUN 1C DEB
| Launched | 9 May 1999 |
| Flight ended | – |
| Launch site | Taiyuan Space Center, PRC |
| Owner | People's Republic of China |
| NORAD ID | 31191 |
| Date fetched |
Epoch osculation |
Inc. [°] |
Ecc. | RA asc node [hr] |
Arg Peri. [°] |
Mean anom [°] |
Mean motion [rev/day] |
Abs. mag |
| Date fetched |
Epoch osculation |
Inc. [°] |
Ecc. | RA asc node [hr] |
Arg Peri. [°] |
Mean anom [°] |
Mean motion [rev/day] |
Abs. mag |
| 2026 May 07 17:58 | 2026 May 04 11:26:21 | 98.7757 | 0.00931 | 2.2791 | 129.7009 | 231.2433 | 14.41163 | – |
| 2026 May 06 17:57 | 2026 May 04 11:26:21 | 98.7757 | 0.00931 | 2.2791 | 129.7009 | 231.2433 | 14.41163 | – |
| 2026 May 05 17:57 | 2026 May 04 11:26:21 | 98.7757 | 0.00931 | 2.2791 | 129.7009 | 231.2433 | 14.41163 | – |
| 2026 May 04 17:57 | 2026 Apr 29 04:48:02 | 98.7762 | 0.00928 | 1.9180 | 145.3212 | 231.2433 | 14.41163 | – |
| 2026 May 03 17:57 | 2026 Apr 29 04:48:02 | 98.7762 | 0.00928 | 1.9180 | 145.3212 | 231.2433 | 14.41163 | – |
| 2026 May 02 17:57 | 2026 Apr 29 04:48:02 | 98.7762 | 0.00928 | 1.9180 | 145.3212 | 231.2433 | 14.41163 | – |
| 2026 May 01 17:56 | 2026 Apr 29 04:48:02 | 98.7762 | 0.00928 | 1.9180 | 145.3212 | 231.2433 | 14.41163 | – |
| 2026 Apr 30 17:56 | 2026 Apr 29 04:48:02 | 98.7762 | 0.00928 | 1.9180 | 145.3212 | 231.2433 | 14.41163 | – |
| 2026 Apr 29 17:57 | 2026 Apr 24 04:49:35 | 98.7761 | 0.00925 | 1.5759 | 160.1531 | 231.2433 | 14.41163 | – |
| 2026 Apr 28 17:56 | 2026 Apr 24 04:49:35 | 98.7761 | 0.00925 | 1.5759 | 160.1531 | 231.2433 | 14.41163 | – |
| 2026 Apr 27 17:58 | 2026 Apr 24 04:49:35 | 98.7761 | 0.00925 | 1.5759 | 160.1531 | 231.2433 | 14.41163 | – |
| 2026 Apr 26 17:58 | 2026 Apr 24 04:49:35 | 98.7761 | 0.00925 | 1.5759 | 160.1531 | 231.2433 | 14.41163 | – |
| 2026 Apr 25 17:58 | 2026 Apr 24 04:49:35 | 98.7761 | 0.00925 | 1.5759 | 160.1531 | 231.2433 | 14.41163 | – |
| 2026 Apr 24 17:59 | 2026 Apr 24 04:49:35 | 98.7761 | 0.00925 | 1.5759 | 160.1531 | 231.2433 | 14.41163 | – |
| 2026 Apr 23 17:57 | 2026 Apr 19 11:31:00 | 98.7761 | 0.00922 | 1.2527 | 174.2054 | 231.2433 | 14.41163 | – |
| 2026 Apr 22 17:57 | 2026 Apr 19 11:31:00 | 98.7761 | 0.00922 | 1.2527 | 174.2054 | 231.2433 | 14.41163 | – |
| 2026 Apr 21 17:57 | 2026 Apr 19 11:31:00 | 98.7761 | 0.00922 | 1.2527 | 174.2054 | 231.2433 | 14.41163 | – |
| 2026 Apr 20 17:57 | 2026 Apr 19 11:31:00 | 98.7761 | 0.00922 | 1.2527 | 174.2054 | 231.2433 | 14.41163 | – |
| 2026 Apr 19 17:58 | 2026 Apr 19 11:31:00 | 98.7761 | 0.00922 | 1.2527 | 174.2054 | 231.2433 | 14.41163 | – |
| 2026 Apr 18 17:56 | 2026 Apr 13 05:32:49 | 98.7767 | 0.00918 | 0.8251 | 192.8817 | 231.2433 | 14.41163 | – |
| 2026 Apr 16 17:57 | 2026 Apr 13 05:32:49 | 98.7767 | 0.00918 | 0.8251 | 192.8817 | 231.2433 | 14.41163 | – |
| 2026 Apr 14 17:57 | 2026 Apr 13 05:32:49 | 98.7767 | 0.00918 | 0.8251 | 192.8817 | 231.2433 | 14.41163 | – |
| 2026 Apr 13 17:57 | 2026 Apr 13 05:32:49 | 98.7767 | 0.00918 | 0.8251 | 192.8817 | 231.2433 | 14.41163 | – |
| 2026 Apr 12 17:57 | 2026 Apr 08 03:54:16 | 98.7767 | 0.00916 | 0.4782 | 208.1119 | 231.2433 | 14.41163 | – |
| 2026 Apr 11 17:57 | 2026 Apr 08 03:54:16 | 98.7767 | 0.00916 | 0.4782 | 208.1119 | 231.2433 | 14.41163 | – |
| 2026 Apr 10 17:58 | 2026 Apr 08 03:54:16 | 98.7767 | 0.00916 | 0.4782 | 208.1119 | 231.2433 | 14.41163 | – |